sensor_id;sensor_type;location;lat;lon;timestamp;P1;durP1;ratioP1;P2;durP2;ratioP2
66707;SDS011;53622;0.000;0.000;2023-02-10T00:00:25;3.53;;;2.90;;
66707;SDS011;53622;0.000;0.000;2023-02-10T00:02:56;3.25;;;2.72;;
66707;SDS011;53622;0.000;0.000;2023-02-10T00:05:25;4.10;;;3.05;;
66707;SDS011;53622;0.000;0.000;2023-02-10T00:07:55;3.30;;;2.92;;
66707;SDS011;53622;0.000;0.000;2023-02-10T00:10:24;3.30;;;3.00;;
66707;SDS011;53622;0.000;0.000;2023-02-10T00:12:53;3.22;;;2.92;;
66707;SDS011;53622;0.000;0.000;2023-02-10T00:15:22;3.35;;;3.05;;
66707;SDS011;53622;0.000;0.000;2023-02-10T00:17:52;3.83;;;3.20;;
66707;SDS011;53622;0.000;0.000;2023-02-10T00:20:24;3.80;;;3.40;;
66707;SDS011;53622;0.000;0.000;2023-02-10T00:22:53;3.30;;;3.00;;
66707;SDS011;53622;0.000;0.000;2023-02-10T00:25:22;3.58;;;3.25;;
66707;SDS011;53622;0.000;0.000;2023-02-10T00:27:51;3.20;;;2.72;;
66707;SDS011;53622;0.000;0.000;2023-02-10T00:30:21;3.08;;;2.80;;
66707;SDS011;53622;0.000;0.000;2023-02-10T00:32:50;3.20;;;2.90;;
66707;SDS011;53622;0.000;0.000;2023-02-10T00:35:19;3.65;;;3.35;;
66707;SDS011;53622;0.000;0.000;2023-02-10T00:37:50;3.78;;;3.30;;
66707;SDS011;53622;0.000;0.000;2023-02-10T00:40:19;4.17;;;3.30;;
66707;SDS011;53622;0.000;0.000;2023-02-10T00:42:48;3.05;;;2.75;;
66707;SDS011;53622;0.000;0.000;2023-02-10T00:45:18;2.83;;;2.63;;
66707;SDS011;53622;0.000;0.000;2023-02-10T00:47:47;3.35;;;2.95;;
66707;SDS011;53622;0.000;0.000;2023-02-10T00:50:17;3.15;;;2.83;;
66707;SDS011;53622;0.000;0.000;2023-02-10T00:52:49;3.40;;;3.10;;
66707;SDS011;53622;0.000;0.000;2023-02-10T00:55:19;3.63;;;3.33;;
66707;SDS011;53622;0.000;0.000;2023-02-10T00:57:48;3.27;;;2.97;;
66707;SDS011;53622;0.000;0.000;2023-02-10T01:00:17;3.55;;;3.00;;
66707;SDS011;53622;0.000;0.000;2023-02-10T01:02:46;3.38;;;3.08;;
66707;SDS011;53622;0.000;0.000;2023-02-10T01:05:16;3.57;;;3.00;;
66707;SDS011;53622;0.000;0.000;2023-02-10T01:07:45;5.07;;;3.37;;
66707;SDS011;53622;0.000;0.000;2023-02-10T01:10:16;4.43;;;3.70;;
66707;SDS011;53622;0.000;0.000;2023-02-10T01:12:46;4.35;;;3.17;;
66707;SDS011;53622;0.000;0.000;2023-02-10T01:15:15;10.27;;;3.55;;
66707;SDS011;53622;0.000;0.000;2023-02-10T01:17:45;4.15;;;3.45;;
66707;SDS011;53622;0.000;0.000;2023-02-10T01:20:14;4.68;;;3.78;;
66707;SDS011;53622;0.000;0.000;2023-02-10T01:22:43;3.83;;;3.13;;
66707;SDS011;53622;0.000;0.000;2023-02-10T01:25:13;4.55;;;3.88;;
66707;SDS011;53622;0.000;0.000;2023-02-10T01:27:44;5.78;;;3.85;;
66707;SDS011;53622;0.000;0.000;2023-02-10T01:30:13;6.20;;;3.93;;
66707;SDS011;53622;0.000;0.000;2023-02-10T01:32:42;5.40;;;3.70;;
66707;SDS011;53622;0.000;0.000;2023-02-10T01:35:11;5.25;;;3.80;;
66707;SDS011;53622;0.000;0.000;2023-02-10T01:37:41;4.93;;;3.77;;
66707;SDS011;53622;0.000;0.000;2023-02-10T01:40:10;4.87;;;4.17;;
66707;SDS011;53622;0.000;0.000;2023-02-10T01:42:39;6.10;;;3.90;;
66707;SDS011;53622;0.000;0.000;2023-02-10T01:45:15;4.43;;;3.73;;
66707;SDS011;53622;0.000;0.000;2023-02-10T01:47:49;5.70;;;3.90;;
66707;SDS011;53622;0.000;0.000;2023-02-10T01:50:21;4.50;;;3.50;;
66707;SDS011;53622;0.000;0.000;2023-02-10T01:52:54;5.37;;;3.70;;
66707;SDS011;53622;0.000;0.000;2023-02-10T01:55:25;3.90;;;3.50;;
66707;SDS011;53622;0.000;0.000;2023-02-10T01:58:00;4.13;;;3.50;;
66707;SDS011;53622;0.000;0.000;2023-02-10T02:00:33;4.55;;;3.97;;
66707;SDS011;53622;0.000;0.000;2023-02-10T02:03:03;4.67;;;3.30;;
66707;SDS011;53622;0.000;0.000;2023-02-10T02:05:34;4.37;;;3.37;;
66707;SDS011;53622;0.000;0.000;2023-02-10T02:08:05;3.70;;;3.40;;
66707;SDS011;53622;0.000;0.000;2023-02-10T02:10:40;3.92;;;3.63;;
66707;SDS011;53622;0.000;0.000;2023-02-10T02:13:20;4.00;;;3.40;;
66707;SDS011;53622;0.000;0.000;2023-02-10T02:16:00;6.13;;;4.07;;
66707;SDS011;53622;0.000;0.000;2023-02-10T02:18:39;4.13;;;3.60;;
66707;SDS011;53622;0.000;0.000;2023-02-10T02:21:23;4.00;;;3.60;;
66707;SDS011;53622;0.000;0.000;2023-02-10T02:27:36;4.17;;;3.60;;
66707;SDS011;53622;0.000;0.000;2023-02-10T02:30:25;4.90;;;3.50;;
66707;SDS011;53622;0.000;0.000;2023-02-10T02:33:12;4.10;;;3.70;;
66707;SDS011;53622;0.000;0.000;2023-02-10T02:35:50;4.07;;;3.60;;
66707;SDS011;53622;0.000;0.000;2023-02-10T02:38:24;6.17;;;4.00;;
66707;SDS011;53622;0.000;0.000;2023-02-10T02:40:53;4.17;;;3.77;;
66707;SDS011;53622;0.000;0.000;2023-02-10T02:43:23;7.63;;;3.90;;
66707;SDS011;53622;0.000;0.000;2023-02-10T02:45:53;4.50;;;3.67;;
66707;SDS011;53622;0.000;0.000;2023-02-10T02:48:39;4.20;;;3.80;;
66707;SDS011;53622;0.000;0.000;2023-02-10T02:51:18;3.70;;;3.40;;
66707;SDS011;53622;0.000;0.000;2023-02-10T02:53:58;4.20;;;3.80;;
66707;SDS011;53622;0.000;0.000;2023-02-10T02:56:33;4.47;;;4.07;;
66707;SDS011;53622;0.000;0.000;2023-02-10T02:59:08;4.20;;;3.80;;
66707;SDS011;53622;0.000;0.000;2023-02-10T03:01:42;5.20;;;3.80;;
66707;SDS011;53622;0.000;0.000;2023-02-10T03:04:18;5.00;;;3.93;;
66707;SDS011;53622;0.000;0.000;2023-02-10T03:06:48;3.83;;;3.43;;
66707;SDS011;53622;0.000;0.000;2023-02-10T03:09:17;4.87;;;3.57;;
66707;SDS011;53622;0.000;0.000;2023-02-10T03:11:46;4.93;;;3.73;;
66707;SDS011;53622;0.000;0.000;2023-02-10T03:14:16;4.00;;;3.60;;
66707;SDS011;53622;0.000;0.000;2023-02-10T03:16:45;4.03;;;3.57;;
66707;SDS011;53622;0.000;0.000;2023-02-10T03:19:15;4.40;;;4.00;;
66707;SDS011;53622;0.000;0.000;2023-02-10T03:21:45;5.27;;;3.67;;
66707;SDS011;53622;0.000;0.000;2023-02-10T03:24:15;4.30;;;3.57;;
66707;SDS011;53622;0.000;0.000;2023-02-10T03:26:45;4.40;;;3.57;;
66707;SDS011;53622;0.000;0.000;2023-02-10T03:29:14;3.70;;;3.40;;
66707;SDS011;53622;0.000;0.000;2023-02-10T03:31:44;4.03;;;3.63;;
66707;SDS011;53622;0.000;0.000;2023-02-10T03:34:13;6.00;;;3.90;;
66707;SDS011;53622;0.000;0.000;2023-02-10T03:36:43;4.00;;;3.60;;
66707;SDS011;53622;0.000;0.000;2023-02-10T03:39:13;4.17;;;3.47;;
66707;SDS011;53622;0.000;0.000;2023-02-10T03:41:43;3.93;;;3.63;;
66707;SDS011;53622;0.000;0.000;2023-02-10T03:44:12;4.07;;;3.53;;
66707;SDS011;53622;0.000;0.000;2023-02-10T03:46:41;3.90;;;3.60;;
66707;SDS011;53622;0.000;0.000;2023-02-10T03:49:10;4.50;;;3.70;;
66707;SDS011;53622;0.000;0.000;2023-02-10T03:51:40;3.60;;;3.30;;
66707;SDS011;53622;0.000;0.000;2023-02-10T03:54:09;4.90;;;3.67;;
66707;SDS011;53622;0.000;0.000;2023-02-10T03:56:40;3.80;;;3.40;;
66707;SDS011;53622;0.000;0.000;2023-02-10T03:59:09;3.97;;;3.58;;
66707;SDS011;53622;0.000;0.000;2023-02-10T04:01:38;4.07;;;3.67;;
66707;SDS011;53622;0.000;0.000;2023-02-10T04:04:07;3.92;;;3.45;;
66707;SDS011;53622;0.000;0.000;2023-02-10T04:06:37;4.20;;;3.80;;
66707;SDS011;53622;0.000;0.000;2023-02-10T04:09:06;4.00;;;3.60;;
66707;SDS011;53622;0.000;0.000;2023-02-10T04:11:35;4.30;;;3.90;;
66707;SDS011;53622;0.000;0.000;2023-02-10T04:14:06;4.47;;;3.40;;
66707;SDS011;53622;0.000;0.000;2023-02-10T04:16:35;3.77;;;3.47;;
66707;SDS011;53622;0.000;0.000;2023-02-10T04:19:06;3.95;;;3.60;;
66707;SDS011;53622;0.000;0.000;2023-02-10T04:21:35;3.90;;;3.50;;
66707;SDS011;53622;0.000;0.000;2023-02-10T04:24:05;4.03;;;3.70;;
66707;SDS011;53622;0.000;0.000;2023-02-10T04:26:34;4.70;;;3.60;;
66707;SDS011;53622;0.000;0.000;2023-02-10T04:29:03;4.97;;;3.90;;
66707;SDS011;53622;0.000;0.000;2023-02-10T04:31:34;3.93;;;3.57;;
66707;SDS011;53622;0.000;0.000;2023-02-10T04:34:03;4.40;;;4.00;;
66707;SDS011;53622;0.000;0.000;2023-02-10T04:36:32;4.27;;;3.87;;
66707;SDS011;53622;0.000;0.000;2023-02-10T04:39:02;4.07;;;3.67;;
66707;SDS011;53622;0.000;0.000;2023-02-10T04:41:31;4.30;;;3.90;;
66707;SDS011;53622;0.000;0.000;2023-02-10T04:44:01;4.20;;;3.80;;
66707;SDS011;53622;0.000;0.000;2023-02-10T04:46:31;5.60;;;3.83;;
66707;SDS011;53622;0.000;0.000;2023-02-10T04:49:01;4.40;;;3.93;;
66707;SDS011;53622;0.000;0.000;2023-02-10T04:51:30;4.53;;;3.80;;
66707;SDS011;53622;0.000;0.000;2023-02-10T04:53:59;5.00;;;4.50;;
66707;SDS011;53622;0.000;0.000;2023-02-10T04:56:28;4.50;;;4.10;;
66707;SDS011;53622;0.000;0.000;2023-02-10T04:58:58;4.90;;;4.00;;
66707;SDS011;53622;0.000;0.000;2023-02-10T05:01:27;4.35;;;3.67;;
66707;SDS011;53622;0.000;0.000;2023-02-10T05:03:58;4.57;;;4.17;;
66707;SDS011;53622;0.000;0.000;2023-02-10T05:06:27;4.07;;;3.67;;
66707;SDS011;53622;0.000;0.000;2023-02-10T05:08:57;4.80;;;4.30;;
66707;SDS011;53622;0.000;0.000;2023-02-10T05:11:26;5.53;;;4.07;;
66707;SDS011;53622;0.000;0.000;2023-02-10T05:13:55;5.23;;;3.93;;
66707;SDS011;53622;0.000;0.000;2023-02-10T05:16:26;4.33;;;3.93;;
66707;SDS011;53622;0.000;0.000;2023-02-10T05:18:55;5.30;;;3.93;;
66707;SDS011;53622;0.000;0.000;2023-02-10T05:21:25;5.27;;;4.03;;
66707;SDS011;53622;0.000;0.000;2023-02-10T05:23:56;4.43;;;4.03;;
66707;SDS011;53622;0.000;0.000;2023-02-10T05:26:26;4.27;;;3.83;;
66707;SDS011;53622;0.000;0.000;2023-02-10T05:28:55;4.43;;;3.90;;
66707;SDS011;53622;0.000;0.000;2023-02-10T05:31:25;4.83;;;4.30;;
66707;SDS011;53622;0.000;0.000;2023-02-10T05:33:54;5.67;;;4.10;;
66707;SDS011;53622;0.000;0.000;2023-02-10T05:36:23;6.10;;;4.20;;
66707;SDS011;53622;0.000;0.000;2023-02-10T05:38:54;6.30;;;4.20;;
66707;SDS011;53622;0.000;0.000;2023-02-10T05:41:41;4.70;;;4.20;;
66707;SDS011;53622;0.000;0.000;2023-02-10T05:44:10;4.67;;;4.27;;
66707;SDS011;53622;0.000;0.000;2023-02-10T05:46:39;5.37;;;4.30;;
66707;SDS011;53622;0.000;0.000;2023-02-10T05:49:09;5.23;;;4.20;;
66707;SDS011;53622;0.000;0.000;2023-02-10T05:51:40;5.37;;;4.33;;
66707;SDS011;53622;0.000;0.000;2023-02-10T05:54:10;4.10;;;3.70;;
66707;SDS011;53622;0.000;0.000;2023-02-10T05:56:39;11.93;;;4.10;;
66707;SDS011;53622;0.000;0.000;2023-02-10T05:59:09;9.30;;;4.53;;
66707;SDS011;53622;0.000;0.000;2023-02-10T06:01:41;5.53;;;4.40;;
66707;SDS011;53622;0.000;0.000;2023-02-10T06:04:11;4.90;;;4.40;;
66707;SDS011;53622;0.000;0.000;2023-02-10T06:06:42;4.90;;;4.40;;
66707;SDS011;53622;0.000;0.000;2023-02-10T06:09:11;4.80;;;4.40;;
66707;SDS011;53622;0.000;0.000;2023-02-10T06:11:40;9.20;;;4.20;;
66707;SDS011;53622;0.000;0.000;2023-02-10T06:14:09;7.50;;;4.67;;
66707;SDS011;53622;0.000;0.000;2023-02-10T06:16:38;6.67;;;4.23;;
66707;SDS011;53622;0.000;0.000;2023-02-10T06:19:08;6.30;;;4.37;;
66707;SDS011;53622;0.000;0.000;2023-02-10T06:21:37;6.57;;;4.90;;
66707;SDS011;53622;0.000;0.000;2023-02-10T06:24:08;5.57;;;4.53;;
66707;SDS011;53622;0.000;0.000;2023-02-10T06:26:38;16.23;;;10.93;;
66707;SDS011;53622;0.000;0.000;2023-02-10T06:29:07;17.03;;;10.00;;
66707;SDS011;53622;0.000;0.000;2023-02-10T06:31:37;16.87;;;13.53;;
66707;SDS011;53622;0.000;0.000;2023-02-10T06:34:06;17.60;;;15.90;;
66707;SDS011;53622;0.000;0.000;2023-02-10T06:36:36;16.10;;;14.27;;
66707;SDS011;53622;0.000;0.000;2023-02-10T06:39:06;13.50;;;11.40;;
66707;SDS011;53622;0.000;0.000;2023-02-10T06:41:37;11.97;;;10.03;;
66707;SDS011;53622;0.000;0.000;2023-02-10T06:44:06;15.50;;;9.00;;
66707;SDS011;53622;0.000;0.000;2023-02-10T06:46:36;9.17;;;8.03;;
66707;SDS011;53622;0.000;0.000;2023-02-10T06:49:05;13.60;;;7.53;;
66707;SDS011;53622;0.000;0.000;2023-02-10T06:51:35;11.50;;;7.47;;
66707;SDS011;53622;0.000;0.000;2023-02-10T06:54:04;8.10;;;6.67;;
66707;SDS011;53622;0.000;0.000;2023-02-10T06:56:35;11.17;;;6.70;;
66707;SDS011;53622;0.000;0.000;2023-02-10T06:59:04;10.17;;;6.83;;
66707;SDS011;53622;0.000;0.000;2023-02-10T07:01:33;8.33;;;6.40;;
66707;SDS011;53622;0.000;0.000;2023-02-10T07:04:03;7.85;;;6.43;;
66707;SDS011;53622;0.000;0.000;2023-02-10T07:06:33;7.60;;;6.00;;
66707;SDS011;53622;0.000;0.000;2023-02-10T07:09:02;10.95;;;5.65;;
66707;SDS011;53622;0.000;0.000;2023-02-10T07:11:32;9.27;;;5.53;;
66707;SDS011;53622;0.000;0.000;2023-02-10T07:14:03;5.25;;;4.75;;
66707;SDS011;53622;0.000;0.000;2023-02-10T07:16:32;8.05;;;5.40;;
66707;SDS011;53622;0.000;0.000;2023-02-10T07:19:02;6.13;;;4.95;;
66707;SDS011;53622;0.000;0.000;2023-02-10T07:21:31;9.07;;;4.80;;
66707;SDS011;53622;0.000;0.000;2023-02-10T07:24:01;5.70;;;5.10;;
66707;SDS011;53622;0.000;0.000;2023-02-10T07:26:31;5.88;;;4.95;;
66707;SDS011;53622;0.000;0.000;2023-02-10T07:29:00;7.90;;;4.85;;
66707;SDS011;53622;0.000;0.000;2023-02-10T07:31:31;12.48;;;6.63;;
66707;SDS011;53622;0.000;0.000;2023-02-10T07:34:02;7.78;;;5.45;;
66707;SDS011;53622;0.000;0.000;2023-02-10T07:36:32;8.73;;;4.80;;
66707;SDS011;53622;0.000;0.000;2023-02-10T07:39:01;9.32;;;5.20;;
66707;SDS011;53622;0.000;0.000;2023-02-10T07:41:31;10.43;;;5.15;;
66707;SDS011;53622;0.000;0.000;2023-02-10T07:44:00;11.00;;;5.38;;
66707;SDS011;53622;0.000;0.000;2023-02-10T07:46:31;10.07;;;5.38;;
66707;SDS011;53622;0.000;0.000;2023-02-10T07:49:00;10.73;;;5.28;;
66707;SDS011;53622;0.000;0.000;2023-02-10T07:51:29;8.55;;;5.30;;
66707;SDS011;53622;0.000;0.000;2023-02-10T07:53:59;8.32;;;5.63;;
66707;SDS011;53622;0.000;0.000;2023-02-10T07:56:29;12.00;;;5.57;;
66707;SDS011;53622;0.000;0.000;2023-02-10T07:58:58;9.38;;;5.43;;
66707;SDS011;53622;0.000;0.000;2023-02-10T08:01:28;6.20;;;5.45;;
66707;SDS011;53622;0.000;0.000;2023-02-10T08:03:59;11.30;;;5.53;;
66707;SDS011;53622;0.000;0.000;2023-02-10T08:06:28;8.43;;;4.90;;
66707;SDS011;53622;0.000;0.000;2023-02-10T08:08:57;8.00;;;4.85;;
66707;SDS011;53622;0.000;0.000;2023-02-10T08:11:27;9.82;;;5.07;;
66707;SDS011;53622;0.000;0.000;2023-02-10T08:14:00;6.63;;;4.75;;
66707;SDS011;53622;0.000;0.000;2023-02-10T08:16:29;7.43;;;5.22;;
66707;SDS011;53622;0.000;0.000;2023-02-10T08:19:00;8.13;;;5.25;;
66707;SDS011;53622;0.000;0.000;2023-02-10T08:21:29;8.13;;;4.72;;
66707;SDS011;53622;0.000;0.000;2023-02-10T08:23:59;7.35;;;6.00;;
66707;SDS011;53622;0.000;0.000;2023-02-10T08:26:28;5.63;;;4.75;;
66707;SDS011;53622;0.000;0.000;2023-02-10T08:28:57;7.50;;;4.90;;
66707;SDS011;53622;0.000;0.000;2023-02-10T08:31:27;12.13;;;6.03;;
66707;SDS011;53622;0.000;0.000;2023-02-10T08:33:56;8.65;;;5.35;;
66707;SDS011;53622;0.000;0.000;2023-02-10T08:36:27;8.55;;;5.45;;
66707;SDS011;53622;0.000;0.000;2023-02-10T08:38:57;7.05;;;5.15;;
66707;SDS011;53622;0.000;0.000;2023-02-10T08:41:26;7.57;;;5.32;;
66707;SDS011;53622;0.000;0.000;2023-02-10T08:43:57;5.82;;;4.75;;
66707;SDS011;53622;0.000;0.000;2023-02-10T08:46:27;8.93;;;5.60;;
66707;SDS011;53622;0.000;0.000;2023-02-10T08:48:56;6.85;;;4.65;;
66707;SDS011;53622;0.000;0.000;2023-02-10T08:51:29;6.30;;;4.57;;
66707;SDS011;53622;0.000;0.000;2023-02-10T08:54:00;9.77;;;4.70;;
66707;SDS011;53622;0.000;0.000;2023-02-10T08:56:30;6.35;;;4.78;;
66707;SDS011;53622;0.000;0.000;2023-02-10T08:59:00;8.60;;;5.00;;
66707;SDS011;53622;0.000;0.000;2023-02-10T09:01:29;8.50;;;4.57;;
66707;SDS011;53622;0.000;0.000;2023-02-10T09:03:58;14.30;;;4.40;;
66707;SDS011;53622;0.000;0.000;2023-02-10T09:06:30;14.85;;;5.10;;
66707;SDS011;53622;0.000;0.000;2023-02-10T09:09:06;8.57;;;4.78;;
66707;SDS011;53622;0.000;0.000;2023-02-10T09:11:37;7.45;;;4.53;;
66707;SDS011;53622;0.000;0.000;2023-02-10T09:14:07;5.38;;;4.63;;
66707;SDS011;53622;0.000;0.000;2023-02-10T09:16:37;8.95;;;4.78;;
66707;SDS011;53622;0.000;0.000;2023-02-10T09:19:06;7.63;;;4.35;;
66707;SDS011;53622;0.000;0.000;2023-02-10T09:21:37;9.38;;;4.70;;
66707;SDS011;53622;0.000;0.000;2023-02-10T09:24:13;8.68;;;4.10;;
66707;SDS011;53622;0.000;0.000;2023-02-10T09:26:43;11.05;;;4.70;;
66707;SDS011;53622;0.000;0.000;2023-02-10T09:29:12;6.65;;;4.35;;
66707;SDS011;53622;0.000;0.000;2023-02-10T09:31:42;10.13;;;4.45;;
66707;SDS011;53622;0.000;0.000;2023-02-10T09:34:11;10.52;;;4.63;;
66707;SDS011;53622;0.000;0.000;2023-02-10T09:36:42;9.88;;;4.72;;
66707;SDS011;53622;0.000;0.000;2023-02-10T09:39:12;8.93;;;5.30;;
66707;SDS011;53622;0.000;0.000;2023-02-10T09:41:45;11.60;;;5.32;;
66707;SDS011;53622;0.000;0.000;2023-02-10T09:44:23;8.55;;;4.30;;
66707;SDS011;53622;0.000;0.000;2023-02-10T09:47:06;6.47;;;4.55;;
66707;SDS011;53622;0.000;0.000;2023-02-10T09:49:49;6.32;;;4.00;;
66707;SDS011;53622;0.000;0.000;2023-02-10T09:52:32;7.13;;;4.47;;
66707;SDS011;53622;0.000;0.000;2023-02-10T09:55:20;4.55;;;4.15;;
66707;SDS011;53622;0.000;0.000;2023-02-10T09:57:56;5.43;;;4.18;;
66707;SDS011;53622;0.000;0.000;2023-02-10T10:00:28;7.07;;;4.47;;
66707;SDS011;53622;0.000;0.000;2023-02-10T10:03:01;4.72;;;4.07;;
66707;SDS011;53622;0.000;0.000;2023-02-10T10:05:38;5.97;;;4.10;;
66707;SDS011;53622;0.000;0.000;2023-02-10T10:08:18;5.65;;;3.55;;
66707;SDS011;53622;0.000;0.000;2023-02-10T10:10:53;4.47;;;3.80;;
66707;SDS011;53622;0.000;0.000;2023-02-10T10:13:25;12.45;;;4.53;;
66707;SDS011;53622;0.000;0.000;2023-02-10T10:16:03;5.15;;;3.78;;
66707;SDS011;53622;0.000;0.000;2023-02-10T10:18:44;6.00;;;3.78;;
66707;SDS011;53622;0.000;0.000;2023-02-10T10:21:26;11.23;;;4.22;;
66707;SDS011;53622;0.000;0.000;2023-02-10T10:24:04;6.95;;;3.90;;
66707;SDS011;53622;0.000;0.000;2023-02-10T10:26:50;6.13;;;4.13;;
66707;SDS011;53622;0.000;0.000;2023-02-10T10:29:32;7.82;;;4.00;;
66707;SDS011;53622;0.000;0.000;2023-02-10T10:32:12;6.43;;;3.97;;
66707;SDS011;53622;0.000;0.000;2023-02-10T10:34:48;4.22;;;3.83;;
66707;SDS011;53622;0.000;0.000;2023-02-10T10:37:20;4.22;;;3.60;;
66707;SDS011;53622;0.000;0.000;2023-02-10T10:39:52;4.65;;;3.78;;
66707;SDS011;53622;0.000;0.000;2023-02-10T10:42:26;6.70;;;4.03;;
66707;SDS011;53622;0.000;0.000;2023-02-10T10:45:07;6.53;;;3.85;;
66707;SDS011;53622;0.000;0.000;2023-02-10T10:47:43;5.38;;;3.85;;
66707;SDS011;53622;0.000;0.000;2023-02-10T10:50:15;6.22;;;3.67;;
66707;SDS011;53622;0.000;0.000;2023-02-10T10:52:48;7.97;;;3.55;;
66707;SDS011;53622;0.000;0.000;2023-02-10T10:55:22;4.55;;;3.80;;
66707;SDS011;53622;0.000;0.000;2023-02-10T10:57:56;8.35;;;5.38;;
66707;SDS011;53622;0.000;0.000;2023-02-10T11:00:28;13.20;;;5.60;;
66707;SDS011;53622;0.000;0.000;2023-02-10T11:02:58;9.98;;;5.57;;
66707;SDS011;53622;0.000;0.000;2023-02-10T11:05:30;14.02;;;5.72;;
66707;SDS011;53622;0.000;0.000;2023-02-10T11:08:01;11.70;;;5.50;;
66707;SDS011;53622;0.000;0.000;2023-02-10T11:10:37;17.33;;;5.25;;
66707;SDS011;53622;0.000;0.000;2023-02-10T11:13:16;39.90;;;7.63;;
66707;SDS011;53622;0.000;0.000;2023-02-10T11:15:47;33.65;;;7.03;;
66707;SDS011;53622;0.000;0.000;2023-02-10T11:18:18;31.42;;;6.45;;
66707;SDS011;53622;0.000;0.000;2023-02-10T11:20:52;19.65;;;6.45;;
66707;SDS011;53622;0.000;0.000;2023-02-10T11:23:23;14.82;;;6.40;;
66707;SDS011;53622;0.000;0.000;2023-02-10T11:25:56;22.63;;;6.53;;
66707;SDS011;53622;0.000;0.000;2023-02-10T11:28:29;28.27;;;7.10;;
66707;SDS011;53622;0.000;0.000;2023-02-10T11:31:00;18.48;;;6.97;;
66707;SDS011;53622;0.000;0.000;2023-02-10T11:33:32;22.73;;;6.20;;
66707;SDS011;53622;0.000;0.000;2023-02-10T11:36:04;19.65;;;6.65;;
66707;SDS011;53622;0.000;0.000;2023-02-10T11:38:36;17.60;;;7.22;;
66707;SDS011;53622;0.000;0.000;2023-02-10T11:41:07;17.42;;;6.30;;
66707;SDS011;53622;0.000;0.000;2023-02-10T11:43:40;12.98;;;7.22;;
66707;SDS011;53622;0.000;0.000;2023-02-10T11:46:17;15.15;;;6.43;;
66707;SDS011;53622;0.000;0.000;2023-02-10T11:48:53;13.88;;;7.43;;
66707;SDS011;53622;0.000;0.000;2023-02-10T11:51:24;14.60;;;7.43;;
66707;SDS011;53622;0.000;0.000;2023-02-10T11:53:53;10.75;;;6.55;;
66707;SDS011;53622;0.000;0.000;2023-02-10T11:56:25;12.85;;;6.63;;
66707;SDS011;53622;0.000;0.000;2023-02-10T11:59:20;14.35;;;6.22;;
66707;SDS011;53622;0.000;0.000;2023-02-10T12:02:01;10.15;;;6.45;;
66707;SDS011;53622;0.000;0.000;2023-02-10T12:07:27;11.30;;;6.07;;
66707;SDS011;53622;0.000;0.000;2023-02-10T12:10:10;13.18;;;5.78;;
66707;SDS011;53622;0.000;0.000;2023-02-10T12:12:49;13.20;;;7.57;;
66707;SDS011;53622;0.000;0.000;2023-02-10T12:15:26;11.60;;;8.10;;
66707;SDS011;53622;0.000;0.000;2023-02-10T12:18:06;15.10;;;8.57;;
66707;SDS011;53622;0.000;0.000;2023-02-10T12:20:51;9.85;;;7.65;;
66707;SDS011;53622;0.000;0.000;2023-02-10T12:23:42;8.93;;;6.90;;
66707;SDS011;53622;0.000;0.000;2023-02-10T12:26:21;9.25;;;6.40;;
66707;SDS011;53622;0.000;0.000;2023-02-10T12:28:59;9.10;;;6.55;;
66707;SDS011;53622;0.000;0.000;2023-02-10T12:31:38;6.90;;;5.22;;
66707;SDS011;53622;0.000;0.000;2023-02-10T12:34:36;8.35;;;5.93;;
66707;SDS011;53622;0.000;0.000;2023-02-10T12:37:19;7.55;;;5.72;;
66707;SDS011;53622;0.000;0.000;2023-02-10T12:40:14;9.65;;;6.15;;
66707;SDS011;53622;0.000;0.000;2023-02-10T12:42:53;11.38;;;6.78;;
66707;SDS011;53622;0.000;0.000;2023-02-10T12:45:35;8.30;;;6.65;;
66707;SDS011;53622;0.000;0.000;2023-02-10T12:48:16;10.02;;;7.07;;
66707;SDS011;53622;0.000;0.000;2023-02-10T12:51:00;9.43;;;6.10;;
66707;SDS011;53622;0.000;0.000;2023-02-10T12:53:47;10.30;;;7.22;;
66707;SDS011;53622;0.000;0.000;2023-02-10T12:56:20;9.90;;;7.00;;
66707;SDS011;53622;0.000;0.000;2023-02-10T12:58:53;18.48;;;7.32;;
66707;SDS011;53622;0.000;0.000;2023-02-10T13:01:28;12.43;;;7.25;;
66707;SDS011;53622;0.000;0.000;2023-02-10T13:04:03;15.73;;;6.70;;
66707;SDS011;53622;0.000;0.000;2023-02-10T13:06:41;17.33;;;6.90;;
66707;SDS011;53622;0.000;0.000;2023-02-10T13:09:17;12.55;;;7.00;;
66707;SDS011;53622;0.000;0.000;2023-02-10T13:11:58;12.10;;;5.68;;
66707;SDS011;53622;0.000;0.000;2023-02-10T13:14:34;11.10;;;5.97;;
66707;SDS011;53622;0.000;0.000;2023-02-10T13:17:05;9.48;;;5.72;;
66707;SDS011;53622;0.000;0.000;2023-02-10T13:19:38;11.02;;;5.95;;
66707;SDS011;53622;0.000;0.000;2023-02-10T13:22:22;7.05;;;5.38;;
66707;SDS011;53622;0.000;0.000;2023-02-10T13:25:07;8.38;;;5.47;;
66707;SDS011;53622;0.000;0.000;2023-02-10T13:27:45;7.40;;;5.55;;
66707;SDS011;53622;0.000;0.000;2023-02-10T13:30:32;8.35;;;5.90;;
66707;SDS011;53622;0.000;0.000;2023-02-10T13:33:15;6.10;;;5.22;;
66707;SDS011;53622;0.000;0.000;2023-02-10T13:35:51;8.20;;;5.47;;
66707;SDS011;53622;0.000;0.000;2023-02-10T13:38:21;8.30;;;5.57;;
66707;SDS011;53622;0.000;0.000;2023-02-10T13:40:57;8.30;;;5.32;;
66707;SDS011;53622;0.000;0.000;2023-02-10T13:43:53;6.60;;;5.15;;
66707;SDS011;53622;0.000;0.000;2023-02-10T13:46:26;11.32;;;5.68;;
66707;SDS011;53622;0.000;0.000;2023-02-10T13:49:00;8.50;;;5.97;;
66707;SDS011;53622;0.000;0.000;2023-02-10T13:51:31;6.45;;;5.50;;
66707;SDS011;53622;0.000;0.000;2023-02-10T13:54:02;7.40;;;5.47;;
66707;SDS011;53622;0.000;0.000;2023-02-10T13:56:32;8.98;;;6.53;;
66707;SDS011;53622;0.000;0.000;2023-02-10T13:59:03;7.03;;;5.65;;
66707;SDS011;53622;0.000;0.000;2023-02-10T14:01:36;9.30;;;7.47;;
66707;SDS011;53622;0.000;0.000;2023-02-10T14:04:25;9.07;;;7.03;;
66707;SDS011;53622;0.000;0.000;2023-02-10T14:06:57;7.88;;;6.47;;
66707;SDS011;53622;0.000;0.000;2023-02-10T14:09:32;6.70;;;5.90;;
66707;SDS011;53622;0.000;0.000;2023-02-10T14:12:04;9.77;;;7.38;;
66707;SDS011;53622;0.000;0.000;2023-02-10T14:14:51;9.63;;;7.05;;
66707;SDS011;53622;0.000;0.000;2023-02-10T14:17:21;11.18;;;6.55;;
66707;SDS011;53622;0.000;0.000;2023-02-10T14:19:58;9.73;;;6.72;;
66707;SDS011;53622;0.000;0.000;2023-02-10T14:22:30;8.40;;;6.20;;
66707;SDS011;53622;0.000;0.000;2023-02-10T14:25:14;7.47;;;6.18;;
66707;SDS011;53622;0.000;0.000;2023-02-10T14:27:47;8.40;;;6.60;;
66707;SDS011;53622;0.000;0.000;2023-02-10T14:30:19;9.90;;;6.75;;
66707;SDS011;53622;0.000;0.000;2023-02-10T14:32:51;8.82;;;6.32;;
66707;SDS011;53622;0.000;0.000;2023-02-10T14:35:24;8.35;;;6.82;;
66707;SDS011;53622;0.000;0.000;2023-02-10T14:37:57;8.30;;;6.85;;
66707;SDS011;53622;0.000;0.000;2023-02-10T14:40:28;8.77;;;6.65;;
66707;SDS011;53622;0.000;0.000;2023-02-10T14:42:59;7.45;;;6.10;;
66707;SDS011;53622;0.000;0.000;2023-02-10T14:45:30;10.20;;;6.15;;
66707;SDS011;53622;0.000;0.000;2023-02-10T14:48:02;8.27;;;6.10;;
66707;SDS011;53622;0.000;0.000;2023-02-10T14:50:36;6.97;;;6.18;;
66707;SDS011;53622;0.000;0.000;2023-02-10T14:53:14;6.47;;;5.72;;
66707;SDS011;53622;0.000;0.000;2023-02-10T14:55:46;8.80;;;6.47;;
66707;SDS011;53622;0.000;0.000;2023-02-10T14:58:22;6.95;;;6.18;;
66707;SDS011;53622;0.000;0.000;2023-02-10T15:00:54;7.45;;;6.00;;
66707;SDS011;53622;0.000;0.000;2023-02-10T15:03:27;7.57;;;6.78;;
66707;SDS011;53622;0.000;0.000;2023-02-10T15:05:58;7.43;;;5.38;;
66707;SDS011;53622;0.000;0.000;2023-02-10T15:08:32;7.32;;;6.32;;
66707;SDS011;53622;0.000;0.000;2023-02-10T15:11:08;12.38;;;6.35;;
66707;SDS011;53622;0.000;0.000;2023-02-10T15:13:43;7.82;;;6.63;;
66707;SDS011;53622;0.000;0.000;2023-02-10T15:16:16;8.13;;;6.75;;
66707;SDS011;53622;0.000;0.000;2023-02-10T15:18:47;8.43;;;6.63;;
66707;SDS011;53622;0.000;0.000;2023-02-10T15:21:25;10.40;;;7.43;;
66707;SDS011;53622;0.000;0.000;2023-02-10T15:23:57;7.93;;;6.70;;
66707;SDS011;53622;0.000;0.000;2023-02-10T15:26:26;9.43;;;7.10;;
66707;SDS011;53622;0.000;0.000;2023-02-10T15:28:58;8.85;;;6.75;;
66707;SDS011;53622;0.000;0.000;2023-02-10T15:31:30;7.07;;;6.38;;
66707;SDS011;53622;0.000;0.000;2023-02-10T15:34:00;9.80;;;7.18;;
66707;SDS011;53622;0.000;0.000;2023-02-10T15:36:34;7.93;;;7.13;;